Saphir — WDH3997 — position and weather

sailwx.info

Track history (hours):
 
Tides and Currents Weather Stations Pressure Air Temp Water Temp Dewpoint Dewpoint Depression Visibility Wind Speed Wind Dir Waves Ship Positions

Saphir

Owner: Trautwein, Katrin, Cleveland, OH. More information available from US FCC via Universal Licensing System and Coast Guard Vessel Documentation Center.

Last reported at 2018-Apr-15 18:20 UTC. Time now 2018-Jun-22 20:34 UTC.
Position N 14°45' W 061°13'.
Warning: this ship's position is months out of date.

Length 14 m.

MMSI: 367613150.

Date/timePositionNaut miles runAvg speedWind from/ knotsBaromVisibWave heightAir tempDewpointWater temp
2018-Apr-15 18:20N 14°45' W 061°13'2 5.9
2018-Apr-15 17:59N 14°47' W 061°14'2 4.6
2018-Apr-15 17:26N 14°49' W 061°15'  
2018-Apr-08 20:19N 16°20' W 061°48'3 6.3
2018-Apr-08 19:49N 16°23' W 061°49'2 7.0
2018-Apr-08 19:30N 16°26' W 061°49'4 7.1
2018-Apr-08 19:00N 16°29' W 061°50'4 7.2
2018-Apr-08 18:30N 16°33' W 061°50'4 7.6
2018-Apr-08 18:00N 16°37' W 061°51'4 7.3
2018-Apr-08 17:30N 16°40' W 061°51'4 7.2
2018-Apr-08 17:00N 16°44' W 061°52'4 6.6
2018-Apr-08 16:27N 16°47' W 061°52'3 6.6
2018-Apr-08 16:00N 16°50' W 061°53'3 5.3
2018-Apr-08 15:30N 16°53' W 061°53'3 6.0
2018-Apr-08 15:00N 16°56' W 061°54'3 5.5
2018-Apr-08 14:30N 16°59' W 061°54'5 5.7
2018-Apr-08 13:39N 17°03' W 061°55'1 6.9
2018-Apr-08 13:30N 17°04' W 061°54'0 0.0
2018-Apr-07 19:22N 17°05' W 061°54'1 3.7
2018-Apr-07 19:00N 17°05' W 061°55'3 5.7
2018-Apr-07 18:30N 17°08' W 061°55'3 6.4
2018-Apr-07 18:00N 17°11' W 061°54'3 6.8
2018-Apr-07 17:30N 17°14' W 061°54'4 7.2
2018-Apr-07 17:00N 17°18' W 061°54'4 6.7
2018-Apr-07 16:28N 17°22' W 061°53'3 6.5
2018-Apr-07 15:59N 17°25' W 061°53'3 6.2
2018-Apr-07 15:30N 17°28' W 061°53'3 5.9
2018-Apr-07 15:00N 17°31' W 061°53'3 5.2
2018-Apr-07 14:29N 17°33' W 061°53'5 5.6
2018-Apr-07 13:40N 17°38' W 061°52'1 5.6
2018-Apr-07 13:29N 17°39' W 061°51'1 0.0
2018-Apr-06 01:22N 17°39' W 061°51'0 0.0
2018-Apr-06 00:46N 17°39' W 061°51'0 0.0
2018-Apr-06 00:19N 17°39' W 061°51'0 0.0
2018-Apr-05 23:58N 17°39' W 061°51'0 0.0
2018-Apr-05 23:28N 17°39' W 061°51'0 0.0
2018-Apr-05 22:58N 17°39' W 061°51'0 0.0
2018-Apr-05 22:28N 17°39' W 061°51'0 0.0
2018-Apr-05 21:58N 17°39' W 061°51'0 0.0
2018-Apr-05 21:28N 17°39' W 061°51'0 0.0
2018-Apr-05 20:58N 17°39' W 061°51'0 0.0
2018-Apr-05 20:28N 17°39' W 061°51'0 0.0
2018-Apr-05 19:58N 17°39' W 061°51'0 0.0
2018-Apr-05 19:22N 17°39' W 061°51'0 0.0
2018-Apr-05 18:58N 17°39' W 061°51'0 0.0
2018-Apr-05 18:28N 17°39' W 061°51'  
Track history (hours):
 
Tides and Currents Weather Stations Pressure Air Temp Water Temp Dewpoint Dewpoint Depression Visibility Wind Speed Wind Dir Waves Ship Positions

Saphir

Owner: Trautwein, Katrin, Cleveland, OH. More information available from US FCC via Universal Licensing System and Coast Guard Vessel Documentation Center.

Last reported at 2018-Apr-15 18:20 UTC. Time now 2018-Jun-22 20:34 UTC.
Position N 14°45' W 061°13'.
Warning: this ship's position is months out of date.

Length 14 m.

MMSI: 367613150.

Date/timePositionNaut miles runAvg speedWind from/ knotsBaromVisibWave heightAir tempDewpointWater temp
2018-Apr-15 18:20N 14°45' W 061°13'2 5.9
2018-Apr-15 17:59N 14°47' W 061°14'2 4.6
2018-Apr-15 17:26N 14°49' W 061°15'  
2018-Apr-08 20:19N 16°20' W 061°48'3 6.3
2018-Apr-08 19:49N 16°23' W 061°49'2 7.0
2018-Apr-08 19:30N 16°26' W 061°49'4 7.1
2018-Apr-08 19:00N 16°29' W 061°50'4 7.2
2018-Apr-08 18:30N 16°33' W 061°50'4 7.6
2018-Apr-08 18:00N 16°37' W 061°51'4 7.3
2018-Apr-08 17:30N 16°40' W 061°51'4 7.2
2018-Apr-08 17:00N 16°44' W 061°52'4 6.6
2018-Apr-08 16:27N 16°47' W 061°52'3 6.6
2018-Apr-08 16:00N 16°50' W 061°53'3 5.3
2018-Apr-08 15:30N 16°53' W 061°53'3 6.0
2018-Apr-08 15:00N 16°56' W 061°54'3 5.5
2018-Apr-08 14:30N 16°59' W 061°54'5 5.7
2018-Apr-08 13:39N 17°03' W 061°55'1 6.9
2018-Apr-08 13:30N 17°04' W 061°54'0 0.0
2018-Apr-07 19:22N 17°05' W 061°54'1 3.7
2018-Apr-07 19:00N 17°05' W 061°55'3 5.7
2018-Apr-07 18:30N 17°08' W 061°55'3 6.4
2018-Apr-07 18:00N 17°11' W 061°54'3 6.8
2018-Apr-07 17:30N 17°14' W 061°54'4 7.2
2018-Apr-07 17:00N 17°18' W 061°54'4 6.7
2018-Apr-07 16:28N 17°22' W 061°53'3 6.5
2018-Apr-07 15:59N 17°25' W 061°53'3 6.2
2018-Apr-07 15:30N 17°28' W 061°53'3 5.9
2018-Apr-07 15:00N 17°31' W 061°53'3 5.2
2018-Apr-07 14:29N 17°33' W 061°53'5 5.6
2018-Apr-07 13:40N 17°38' W 061°52'1 5.6
2018-Apr-07 13:29N 17°39' W 061°51'1 0.0
2018-Apr-06 01:22N 17°39' W 061°51'0 0.0
2018-Apr-06 00:46N 17°39' W 061°51'0 0.0
2018-Apr-06 00:19N 17°39' W 061°51'0 0.0
2018-Apr-05 23:58N 17°39' W 061°51'0 0.0
2018-Apr-05 23:28N 17°39' W 061°51'0 0.0
2018-Apr-05 22:58N 17°39' W 061°51'0 0.0
2018-Apr-05 22:28N 17°39' W 061°51'0 0.0
2018-Apr-05 21:58N 17°39' W 061°51'0 0.0
2018-Apr-05 21:28N 17°39' W 061°51'0 0.0
2018-Apr-05 20:58N 17°39' W 061°51'0 0.0
2018-Apr-05 20:28N 17°39' W 061°51'0 0.0
2018-Apr-05 19:58N 17°39' W 061°51'0 0.0
2018-Apr-05 19:22N 17°39' W 061°51'0 0.0
2018-Apr-05 18:58N 17°39' W 061°51'0 0.0
2018-Apr-05 18:28N 17°39' W 061°51'  

Dump ship's entire track history